This is the latest recevied weather packets stored in our database for station/object DL7GAI-7. If no packets are shown the sender has not sent any weather packets the latest 10 day(s).
| Time | Temp. | Humidity | Pressure | Rain* | Wind** | Luminosity | Snow |
|---|---|---|---|---|---|---|---|
| 1777523007 | 7.78° C | 47% | 1023.9 hPa | 0 mm | 4.02 m/s, 45° | - | - |
| 1777522137 | 7.78° C | 47% | 1023.9 hPa | 0 mm | 4.02 m/s, 45° | - | - |
| 1777521331 | 7.78° C | 46% | 1023.9 hPa | 0 mm | 3.13 m/s, 45° | - | - |
| 1777520535 | 7.78° C | 46% | 1023.9 hPa | 0 mm | 3.13 m/s, 45° | - | - |
| 1777519745 | 8.33° C | 43% | 1023.6 hPa | 0 mm | 4.92 m/s, 45° | - | - |
| 1777518975 | 8.33° C | 43% | 1023.6 hPa | 0 mm | 4.92 m/s, 45° | - | - |
| 1777518095 | 8.89° C | 41% | 1023.2 hPa | 0 mm | 7.15 m/s, 45° | - | - |
| 1777517320 | 8.89° C | 41% | 1023.2 hPa | 0 mm | 7.15 m/s, 45° | - | - |
| 1777516507 | 8.89° C | 41% | 1023.1 hPa | 0 mm | 6.71 m/s, 45° | - | - |
| 1777515740 | 8.89° C | 41% | 1023.1 hPa | 0 mm | 6.71 m/s, 45° | - | - |
| 1777515007 | 8.89° C | 41% | 1023.1 hPa | 0 mm | 6.71 m/s, 45° | - | - |
| 1777514250 | 9.44° C | 39% | 1022.7 hPa | 0 mm | 6.71 m/s, 45° | - | - |
| 1777513507 | 9.44° C | 39% | 1022.7 hPa | 0 mm | 6.71 m/s, 45° | - | - |
| 1777512753 | 10° C | 38% | 1022.6 hPa | 0 mm | 5.36 m/s, 45° | - | - |
| 1777511945 | 10° C | 38% | 1022.6 hPa | 0 mm | 5.36 m/s, 45° | - | - |
| 1777511165 | 10° C | 38% | 1022.6 hPa | 0 mm | 5.36 m/s, 45° | - | - |
| 1777510285 | 10.56° C | 39% | 1022.4 hPa | 0 mm | 5.81 m/s, 45° | - | - |
| 1777509433 | 10.56° C | 39% | 1022.4 hPa | 0 mm | 5.81 m/s, 45° | - | - |
| 1777508620 | 11.11° C | 37% | 1022.1 hPa | 0 mm | 6.26 m/s, 45° | - | - |
| 1777507873 | 11.11° C | 37% | 1022.1 hPa | 0 mm | 6.26 m/s, 45° | - | - |
| 1777507080 | 11.67° C | 36% | 1022.1 hPa | 0 mm | 5.36 m/s, 45° | - | - |
| 1777506280 | 11.67° C | 36% | 1022.1 hPa | 0 mm | 5.36 m/s, 45° | - | - |
| 1777505465 | 11.67° C | 37% | 1022 hPa | 0 mm | 4.92 m/s, 45° | - | - |
| 1777504640 | 11.67° C | 37% | 1022 hPa | 0 mm | 4.92 m/s, 45° | - | - |
| 1777503864 | 13.33° C | 32% | 1021.5 hPa | 0 mm | 7.15 m/s, 45° | - | - |
* Rain latest hour (hover to see other rain measurements)
** Current wind speed in m/s (hover to see current wind gust speed)